Time;durP1;ratioP1;P1;durP2;ratioP2;P2;SDS_P1;SDS_P2;PMS_P1;PMS_P2;Temp;Humidity;BMP_temperature;BMP_pressure;BME280_temperature;BME280_humidity;BME280_pressure;Samples;Min_cycle;Max_cycle;Signal;HPM_P1;HPM_P2
2023/07/13 00:01:17;;;;;;;9.80;8.40;;;;;;;20.83;100.00;100702.83;107276;1245;59059;-72
2023/07/13 00:03:46;;;;;;;18.70;9.80;;;;;;;20.73;100.00;100704.10;107277;1245;61123;-72
2023/07/13 00:06:14;;;;;;;13.60;9.20;;;;;;;20.70;100.00;100703.81;107228;1249;72873;-72
2023/07/13 00:08:43;;;;;;;11.60;9.40;;;;;;;20.69;100.00;100702.99;107240;1257;62151;-71
2023/07/13 00:11:13;;;;;;;12.30;9.50;;;;;;;20.68;100.00;100699.02;107026;1251;59841;-73
2023/07/13 00:13:43;;;;;;;11.80;8.40;;;;;;;20.66;100.00;100692.77;107221;1245;73712;-74
2023/07/13 00:16:13;;;;;;;11.60;9.20;;;;;;;20.63;100.00;100686.84;107115;1247;63105;-74
2023/07/13 00:18:43;;;;;;;13.70;9.10;;;;;;;20.61;100.00;100686.54;107084;1251;61933;-73
2023/07/13 00:21:12;;;;;;;12.00;8.90;;;;;;;20.55;100.00;100682.98;106999;1245;64693;-72
2023/07/13 00:23:42;;;;;;;11.00;9.20;;;;;;;20.54;100.00;100683.47;107017;1246;61424;-73
2023/07/13 00:26:12;;;;;;;14.20;9.20;;;;;;;20.54;100.00;100681.95;107041;1245;60828;-72
2023/07/13 00:28:41;;;;;;;11.80;9.60;;;;;;;20.51;100.00;100684.95;107059;1245;73846;-72
2023/07/13 00:31:14;;;;;;;17.40;10.30;;;;;;;20.46;100.00;100685.59;107117;1249;63065;-72
2023/07/13 00:33:44;;;;;;;11.00;9.30;;;;;;;20.41;100.00;100688.69;107088;1244;57526;-72
2023/07/13 00:36:14;;;;;;;13.90;10.30;;;;;;;20.36;100.00;100684.11;106855;1245;62838;-72
2023/07/13 00:38:43;;;;;;;15.50;10.10;;;;;;;20.28;100.00;100684.69;106992;1244;71633;-73
2023/07/13 00:41:12;;;;;;;11.30;9.90;;;;;;;20.22;100.00;100690.70;106965;1248;60684;-72
2023/07/13 00:43:41;;;;;;;13.10;10.80;;;;;;;20.21;100.00;100685.86;107061;1256;73803;-72
2023/07/13 00:46:22;;;;;;;11.80;10.40;;;;;;;20.18;100.00;100684.90;107096;1245;63887;-73
2023/07/13 00:48:54;;;;;;;13.20;10.20;;;;;;;20.16;100.00;100679.31;107203;1245;59023;-72
2023/07/13 00:51:33;;;;;;;16.10;10.50;;;;;;;20.16;100.00;100681.15;107213;1245;72615;-72
2023/07/13 00:54:09;;;;;;;12.90;10.70;;;;;;;20.15;100.00;100679.59;107135;1257;72415;-72
2023/07/13 00:56:42;;;;;;;14.90;10.90;;;;;;;20.15;100.00;100678.44;107182;1244;71011;-71
2023/07/13 00:59:13;;;;;;;13.70;10.10;;;;;;;20.10;100.00;100681.00;109567;1243;63738;-73
2023/07/13 01:01:41;;;;;;;10.70;9.60;;;;;;;20.11;100.00;100683.45;109549;1245;62721;-73
2023/07/13 01:04:10;;;;;;;13.70;9.90;;;;;;;20.08;100.00;100680.91;109476;1244;60644;-74
2023/07/13 01:06:39;;;;;;;19.50;11.50;;;;;;;20.05;100.00;100679.80;109519;1244;63340;-73
2023/07/13 01:09:10;;;;;;;15.00;10.80;;;;;;;20.03;100.00;100677.42;109339;1244;70640;-73
2023/07/13 01:11:41;;;;;;;12.40;10.20;;;;;;;19.99;100.00;100678.77;109540;1244;59511;-73
2023/07/13 01:14:10;;;;;;;11.90;10.70;;;;;;;19.95;100.00;100672.65;109512;1244;63058;-72
2023/07/13 01:16:43;;;;;;;10.70;9.60;;;;;;;19.98;100.00;100672.75;109432;1244;62801;-73
2023/07/13 01:19:35;;;;;;;11.80;10.00;;;;;;;19.98;100.00;100673.21;109311;1244;61958;-72
2023/07/13 01:22:08;;;;;;;;;;;;;;;19.97;100.00;100673.85;109472;1245;62573;-73
2023/07/13 01:24:40;;;;;;;12.10;10.20;;;;;;;19.96;100.00;100676.84;109485;1244;61421;-73
2023/07/13 01:27:11;;;;;;;12.00;10.10;;;;;;;19.92;100.00;100673.27;109312;1244;59834;-73
2023/07/13 01:29:46;;;;;;;14.00;10.30;;;;;;;19.88;100.00;100670.43;109434;1244;73952;-72
2023/07/13 01:32:23;;;;;;;13.40;10.20;;;;;;;19.86;100.00;100667.40;109372;1244;63032;-72
2023/07/13 01:34:56;;;;;;;13.20;10.40;;;;;;;19.80;100.00;100670.63;109454;1244;60889;-73
2023/07/13 01:37:26;;;;;;;14.40;11.10;;;;;;;19.72;100.00;100671.16;109321;1244;74130;-72
2023/07/13 01:39:55;;;;;;;11.90;10.30;;;;;;;19.67;100.00;100674.02;109325;1244;62185;-72
2023/07/13 01:42:24;;;;;;;16.80;10.30;;;;;;;19.65;100.00;100677.32;109473;1247;58975;-72
2023/07/13 01:44:53;;;;;;;13.40;10.90;;;;;;;19.63;100.00;100679.27;109341;1244;73923;-72
2023/07/13 01:47:23;;;;;;;14.00;11.00;;;;;;;19.57;100.00;100675.98;109441;1248;63555;-72
2023/07/13 01:49:52;;;;;;;13.10;11.00;;;;;;;19.55;100.00;100677.51;109342;1244;57732;-72
2023/07/13 01:52:21;;;;;;;12.70;10.60;;;;;;;19.51;100.00;100680.94;109455;1244;62721;-72
2023/07/13 01:54:50;;;;;;;12.40;10.40;;;;;;;19.46;100.00;100687.70;109388;1244;72669;-73
2023/07/13 01:57:18;;;;;;;13.10;10.70;;;;;;;19.41;100.00;100684.48;109428;1244;70172;-73
2023/07/13 01:59:47;;;;;;;15.00;10.40;;;;;;;19.36;100.00;100685.80;109353;1245;63485;-73
2023/07/13 02:02:16;;;;;;;11.80;10.60;;;;;;;19.33;100.00;100687.19;109405;1247;57293;-73
2023/07/13 02:04:45;;;;;;;14.60;11.10;;;;;;;19.29;100.00;100684.75;109393;1244;57160;-73
2023/07/13 02:07:15;;;;;;;11.80;10.10;;;;;;;19.25;100.00;100679.86;109407;1244;73513;-73
2023/07/13 02:09:45;;;;;;;13.20;10.60;;;;;;;19.27;100.00;100679.52;109426;1244;70897;-72
2023/07/13 02:12:14;;;;;;;13.30;10.10;;;;;;;19.25;100.00;100680.79;109362;1248;60321;-72
2023/07/13 02:14:43;;;;;;;11.90;9.60;;;;;;;19.30;100.00;100682.36;109379;1244;72720;-73
2023/07/13 02:17:13;;;;;;;10.30;9.00;;;;;;;19.40;100.00;100682.38;109368;1245;62157;-73
2023/07/13 02:19:42;;;;;;;11.90;8.70;;;;;;;19.53;100.00;100686.40;109424;1244;60424;-73
2023/07/13 02:22:10;;;;;;;13.00;8.60;;;;;;;19.62;100.00;100687.84;109484;1244;73785;-74
2023/07/13 02:24:39;;;;;;;11.90;8.90;;;;;;;19.71;100.00;100687.73;109401;1247;61257;-74
2023/07/13 02:27:08;;;;;;;12.70;8.60;;;;;;;19.80;100.00;100687.27;109480;1244;69010;-74
2023/07/13 02:29:36;;;;;;;12.10;8.80;;;;;;;19.86;100.00;100684.50;109397;1244;73371;-73
2023/07/13 02:32:06;;;;;;;10.00;8.30;;;;;;;19.88;100.00;100680.98;109486;1248;57183;-74
2023/07/13 02:34:35;;;;;;;9.40;7.80;;;;;;;19.91;100.00;100682.91;109410;1244;60947;-73
2023/07/13 02:37:05;;;;;;;10.20;8.20;;;;;;;19.92;100.00;100687.20;109495;1247;62734;-74
2023/07/13 02:39:35;;;;;;;10.70;8.40;;;;;;;19.91;100.00;100686.56;109401;1244;72099;-73
2023/07/13 02:42:05;;;;;;;11.40;7.90;;;;;;;19.93;100.00;100685.33;109399;1244;60190;-72
2023/07/13 02:44:33;;;;;;;9.20;7.30;;;;;;;19.96;100.00;100681.11;109468;1244;73138;-73
2023/07/13 02:47:02;;;;;;;9.90;7.30;;;;;;;20.01;100.00;100676.27;109476;1247;57209;-73
2023/07/13 02:49:31;;;;;;;9.80;7.40;;;;;;;20.06;100.00;100676.70;109473;1248;57251;-73
2023/07/13 02:52:00;;;;;;;9.50;7.40;;;;;;;20.05;100.00;100674.36;109461;1247;63508;-77
2023/07/13 02:54:29;;;;;;;9.60;7.00;;;;;;;20.09;100.00;100678.56;109471;1244;72263;-73
2023/07/13 02:56:58;;;;;;;10.90;7.90;;;;;;;20.09;100.00;100678.92;109504;1244;70404;-71
2023/07/13 02:59:26;;;;;;;13.60;7.90;;;;;;;20.12;100.00;100679.56;109535;1243;74379;-73
2023/07/13 03:01:55;;;;;;;14.50;8.90;;;;;;;20.16;100.00;100678.95;109447;1245;57791;-72
2023/07/13 03:04:24;;;;;;;20.80;10.50;;;;;;;20.27;100.00;100684.05;109350;1248;57766;-72
2023/07/13 03:06:57;;;;;;;21.80;10.70;;;;;;;20.30;100.00;100691.02;109530;1245;62913;-72
2023/07/13 03:09:28;;;;;;;19.40;10.40;;;;;;;20.29;100.00;100695.19;109484;1244;71349;-73
2023/07/13 03:11:57;;;;;;;18.60;10.90;;;;;;;20.28;100.00;100701.76;109451;1244;71621;-72
2023/07/13 03:14:30;;;;;;;18.60;10.60;;;;;;;20.31;100.00;100706.79;109440;1245;72726;-72
2023/07/13 03:17:00;;;;;;;15.80;10.50;;;;;;;20.28;100.00;100709.02;109406;1244;63238;-73
2023/07/13 03:19:31;;;;;;;17.40;9.70;;;;;;;20.29;100.00;100707.69;109496;1244;57418;-72
2023/07/13 03:22:00;;;;;;;16.40;8.30;;;;;;;20.43;100.00;100708.12;109416;1244;74215;-72
2023/07/13 03:24:29;;;;;;;14.80;10.90;;;;;;;20.46;100.00;100706.64;109372;1245;62493;-73
2023/07/13 03:26:58;;;;;;;20.20;9.80;;;;;;;20.47;100.00;100707.84;109395;1244;61828;-73
2023/07/13 03:29:27;;;;;;;14.50;10.20;;;;;;;20.48;100.00;100702.61;109415;1244;64339;-73
2023/07/13 03:31:56;;;;;;;16.20;9.40;;;;;;;20.52;100.00;100701.63;109384;1248;57702;-73
2023/07/13 03:34:25;;;;;;;15.60;10.10;;;;;;;20.53;100.00;100700.88;109495;1244;62110;-73
2023/07/13 03:36:55;;;;;;;15.10;9.60;;;;;;;20.60;100.00;100703.98;109435;1244;74256;-74
2023/07/13 03:39:23;;;;;;;16.70;10.20;;;;;;;20.67;100.00;100705.54;109314;1244;71602;-73
2023/07/13 03:41:55;;;;;;;13.30;9.20;;;;;;;20.72;100.00;100710.69;109347;1248;59782;-74
2023/07/13 03:44:24;;;;;;;14.70;8.80;;;;;;;20.74;100.00;100713.14;109358;1244;73254;-74
2023/07/13 03:46:56;;;;;;;;;;;;;;;20.75;100.00;100713.44;109246;1247;63336;-72
2023/07/13 03:49:25;;;;;;;13.80;9.90;;;;;;;20.80;100.00;100715.16;109320;1246;57500;-72
2023/07/13 03:51:54;;;;;;;15.70;9.80;;;;;;;20.90;100.00;100716.14;109189;1248;61974;-73
2023/07/13 03:54:23;;;;;;;16.00;13.10;;;;;;;20.97;100.00;100719.54;109238;1247;60693;-72
2023/07/13 03:56:52;;;;;;;16.20;9.40;;;;;;;21.05;100.00;100722.02;109060;1251;60006;-73
2023/07/13 03:59:21;;;;;;;15.20;9.60;;;;;;;21.08;100.00;100719.89;109191;1248;73877;-74
2023/07/13 04:01:50;;;;;;;10.40;8.30;;;;;;;21.13;100.00;100722.95;109186;1248;57700;-74
2023/07/13 04:04:19;;;;;;;9.40;7.10;;;;;;;21.23;100.00;100726.27;109354;1245;57661;-74
2023/07/13 04:06:48;;;;;;;13.70;7.90;;;;;;;21.32;100.00;100728.89;109463;1244;73678;-72
2023/07/13 04:09:16;;;;;;;10.30;7.00;;;;;;;21.43;100.00;100731.59;109476;1245;63732;-74
2023/07/13 04:11:45;;;;;;;8.50;7.20;;;;;;;21.52;100.00;100733.83;109563;1247;60944;-75
2023/07/13 04:14:14;;;;;;;11.70;7.60;;;;;;;21.59;100.00;100732.81;109438;1245;72244;-75
2023/07/13 04:16:43;;;;;;;11.50;7.00;;;;;;;21.68;100.00;100736.14;109402;1248;63179;-75
2023/07/13 04:19:13;;;;;;;11.70;6.90;;;;;;;21.81;100.00;100742.65;109463;1243;57450;-84
2023/07/13 04:21:42;;;;;;;12.30;6.80;;;;;;;21.82;100.00;100743.20;109556;1248;62164;-85
2023/07/13 04:24:12;;;;;;;16.20;6.90;;;;;;;21.88;100.00;100745.86;109594;1244;72356;-79
2023/07/13 04:26:41;;;;;;;11.00;7.20;;;;;;;21.90;100.00;100743.86;109512;1245;60271;-80
2023/07/13 04:29:10;;;;;;;13.60;7.70;;;;;;;21.96;100.00;100742.65;109533;1246;62239;-80
2023/07/13 04:31:39;;;;;;;12.10;7.30;;;;;;;22.06;100.00;100745.30;109488;1245;57682;-80
2023/07/13 04:34:08;;;;;;;12.80;7.20;;;;;;;22.13;100.00;100750.64;109569;1245;57231;-80
2023/07/13 04:36:40;;;;;;;10.50;7.30;;;;;;;22.21;100.00;100755.58;109494;1244;72669;-75
2023/07/13 04:39:08;;;;;;;9.40;7.10;;;;;;;22.33;100.00;100760.02;109458;1244;71276;-77
2023/07/13 04:41:37;;;;;;;10.70;6.40;;;;;;;22.39;100.00;100763.24;109438;1248;60302;-79
2023/07/13 04:44:06;;;;;;;11.40;6.80;;;;;;;22.48;100.00;100766.10;109491;1248;63262;-73
2023/07/13 04:46:35;;;;;;;9.80;7.00;;;;;;;22.60;100.00;100773.16;109498;1245;62904;-72
2023/07/13 04:49:04;;;;;;;10.50;6.90;;;;;;;22.72;100.00;100771.86;109582;1244;61701;-75
2023/07/13 04:51:33;;;;;;;8.70;6.60;;;;;;;22.81;100.00;100768.51;109462;1244;73402;-79
2023/07/13 04:54:01;;;;;;;10.10;6.50;;;;;;;22.88;100.00;100774.41;109612;1245;62468;-78
2023/07/13 04:56:30;;;;;;;12.10;6.60;;;;;;;22.99;100.00;100775.23;109528;1248;59823;-79
2023/07/13 04:58:59;;;;;;;8.90;6.50;;;;;;;23.06;100.00;100774.55;109555;1246;63103;-78
2023/07/13 05:01:28;;;;;;;8.80;5.70;;;;;;;23.16;100.00;100776.20;109468;1245;62126;-78
2023/07/13 05:03:59;;;;;;;13.80;7.40;;;;;;;23.27;100.00;100774.08;109585;1245;61550;-77
2023/07/13 05:06:28;;;;;;;7.90;6.50;;;;;;;23.41;100.00;100776.59;109716;1243;72734;-77
2023/07/13 05:08:57;;;;;;;8.00;6.30;;;;;;;23.48;100.00;100776.52;109672;1245;61807;-78
2023/07/13 05:11:26;;;;;;;12.00;6.40;;;;;;;23.63;100.00;100775.70;109677;1244;59973;-78
2023/07/13 05:13:55;;;;;;;9.70;6.80;;;;;;;23.65;100.00;100776.26;109555;1244;72973;-77
2023/07/13 05:16:24;;;;;;;11.70;6.40;;;;;;;23.72;100.00;100783.36;109627;1245;62283;-78
2023/07/13 05:18:53;;;;;;;9.00;6.00;;;;;;;23.80;100.00;100785.51;109608;1244;61439;-77
2023/07/13 05:21:22;;;;;;;10.80;6.10;;;;;;;23.88;100.00;100782.44;109695;1244;65177;-79
2023/07/13 05:23:51;;;;;;;9.80;6.10;;;;;;;23.94;100.00;100784.27;109575;1244;62086;-78
2023/07/13 05:26:20;;;;;;;13.50;6.40;;;;;;;24.01;100.00;100782.59;109453;1244;59762;-78
2023/07/13 05:28:49;;;;;;;11.30;6.50;;;;;;;24.10;100.00;100782.34;109300;1245;62885;-79
2023/07/13 05:31:18;;;;;;;9.40;5.60;;;;;;;24.22;100.00;100784.83;109427;1247;61940;-79
2023/07/13 05:33:47;;;;;;;9.80;5.60;;;;;;;24.33;100.00;100785.42;109566;1244;57735;-79
2023/07/13 05:36:16;;;;;;;7.50;5.80;;;;;;;24.47;100.00;100786.65;109490;1245;62728;-79
2023/07/13 05:38:45;;;;;;;8.00;5.70;;;;;;;24.51;100.00;100781.32;109385;1244;70752;-79
2023/07/13 05:41:14;;;;;;;9.90;6.00;;;;;;;24.53;100.00;100779.73;109406;1244;70370;-79
2023/07/13 05:43:42;;;;;;;9.80;5.90;;;;;;;24.60;100.00;100778.59;109401;1246;65008;-79
2023/07/13 05:46:11;;;;;;;10.00;6.30;;;;;;;24.67;100.00;100776.96;109464;1245;57755;-79
2023/07/13 05:48:40;;;;;;;9.50;6.60;;;;;;;24.79;100.00;100776.02;109402;1244;57334;-79
2023/07/13 05:51:09;;;;;;;9.80;5.90;;;;;;;24.88;100.00;100776.57;109444;1244;73255;-79
2023/07/13 05:53:38;;;;;;;9.90;6.50;;;;;;;24.98;100.00;100775.93;109438;1244;61265;-79
2023/07/13 05:56:08;;;;;;;9.40;6.20;;;;;;;25.11;100.00;100780.23;109535;1244;70392;-80
2023/07/13 05:58:38;;;;;;;8.00;6.30;;;;;;;25.17;100.00;100784.08;109533;1244;65196;-79
2023/07/13 06:01:12;;;;;;;9.00;6.90;;;;;;;25.25;100.00;100779.48;109423;1247;63823;-80
2023/07/13 06:03:42;;;;;;;9.00;6.50;;;;;;;25.30;100.00;100766.11;109392;1244;60848;-78
2023/07/13 06:06:11;;;;;;;9.50;6.40;;;;;;;25.46;100.00;100773.91;109485;1244;64927;-80
2023/07/13 06:08:40;;;;;;;7.90;6.10;;;;;;;25.57;100.00;100771.52;109412;1244;72719;-80
2023/07/13 06:11:22;;;;;;;8.90;6.50;;;;;;;25.68;100.00;100769.36;109489;1245;61409;-79
2023/07/13 06:13:51;;;;;;;11.00;6.60;;;;;;;25.80;100.00;100766.60;109493;1245;64808;-79
2023/07/13 06:16:20;;;;;;;7.50;6.30;;;;;;;25.89;100.00;100770.95;109279;1247;57620;-79
2023/07/13 06:18:49;;;;;;;16.40;7.20;;;;;;;25.94;100.00;100778.59;109504;1244;57501;-79
2023/07/13 06:21:21;;;;;;;11.00;7.10;;;;;;;26.00;100.00;100788.01;109490;1244;63002;-79
2023/07/13 06:23:53;;;;;;;11.20;7.30;;;;;;;26.07;100.00;100787.37;109355;1244;60819;-79
2023/07/13 06:26:22;;;;;;;8.50;6.10;;;;;;;26.12;100.00;100788.63;109334;1248;71108;-79
2023/07/13 06:28:50;;;;;;;11.60;6.60;;;;;;;26.19;99.95;100785.27;109403;1244;74105;-79
2023/07/13 06:31:19;;;;;;;11.60;7.40;;;;;;;26.23;99.49;100786.73;109410;1244;57351;-79
2023/07/13 06:33:48;;;;;;;9.90;7.10;;;;;;;26.32;98.36;100789.79;109567;1244;57198;-78
2023/07/13 06:36:17;;;;;;;8.80;6.40;;;;;;;26.39;97.77;100791.38;109423;1244;62772;-79
2023/07/13 06:38:46;;;;;;;12.90;7.80;;;;;;;26.43;97.75;100791.33;109310;1244;63359;-79
2023/07/13 06:41:14;;;;;;;11.30;7.90;;;;;;;26.52;97.66;100792.90;109409;1244;60163;-79
2023/07/13 06:43:43;;;;;;;12.90;7.90;;;;;;;26.57;97.61;100801.54;109386;1244;62527;-80
2023/07/13 06:46:12;;;;;;;11.40;7.40;;;;;;;26.63;97.11;100799.95;109289;1245;57122;-80
2023/07/13 06:48:42;;;;;;;10.90;7.20;;;;;;;26.70;95.74;100801.63;109278;1244;59522;-82
2023/07/13 06:51:11;;;;;;;11.50;7.20;;;;;;;26.74;95.46;100796.29;109262;1243;63370;-75
2023/07/13 06:53:42;;;;;;;10.10;7.60;;;;;;;26.77;95.12;100791.75;109322;1244;71389;-76
2023/07/13 06:56:11;;;;;;;14.50;7.60;;;;;;;26.84;95.02;100792.61;109441;1243;69557;-75
2023/07/13 06:58:40;;;;;;;10.50;7.60;;;;;;;26.90;95.01;100794.38;109205;1244;73324;-72
2023/07/13 07:01:09;;;;;;;9.40;7.30;;;;;;;26.99;94.18;100793.11;109451;1245;57242;-73
2023/07/13 07:03:38;;;;;;;12.00;7.40;;;;;;;27.13;93.46;100792.98;109427;1244;60741;-74
2023/07/13 07:06:17;;;;;;;11.40;7.40;;;;;;;27.19;92.97;100787.77;109458;1244;64092;-73
2023/07/13 07:08:46;;;;;;;9.50;7.60;;;;;;;27.32;90.53;100784.16;109529;1244;71916;-75
2023/07/13 07:11:26;;;;;;;12.20;7.50;;;;;;;27.29;90.82;100784.38;109439;1244;69430;-74
2023/07/13 07:13:55;;;;;;;10.00;7.20;;;;;;;27.34;90.82;100775.43;109407;1244;74783;-75
2023/07/13 07:16:25;;;;;;;11.20;7.30;;;;;;;27.41;90.56;100770.87;109434;1244;57265;-74
2023/07/13 07:18:54;;;;;;;10.90;7.50;;;;;;;27.50;89.94;100770.26;109341;1244;61267;-75
2023/07/13 07:21:37;;;;;;;10.80;7.10;;;;;;;27.57;88.17;100766.52;109532;1243;64548;-76
2023/07/13 08:04:11;;;;;;;8.20;7.40;;;;;;;28.27;76.09;100782.52;104613;1279;599329;-76
2023/07/13 08:07:05;;;;;;;12.40;6.90;;;;;;;28.31;75.32;100783.59;107193;1252;58803;-75
2023/07/13 08:09:34;;;;;;;10.50;7.70;;;;;;;28.35;75.56;100783.64;107274;1250;60503;-75
2023/07/13 08:12:04;;;;;;;10.60;6.90;;;;;;;28.51;75.32;100787.81;107203;1251;61912;-76
2023/07/13 08:14:38;;;;;;;10.10;6.80;;;;;;;28.72;73.56;100790.03;107081;1251;63511;-76
2023/07/13 08:17:20;;;;;;;6.90;5.90;;;;;;;28.90;71.95;100790.99;106894;1257;369370;-75
2023/07/13 08:19:51;;;;;;;8.10;6.30;;;;;;;28.85;71.40;100786.34;107563;1245;74272;-76
2023/07/13 08:22:23;;;;;;;12.90;7.50;;;;;;;28.72;71.85;100789.71;107516;1246;58947;-76
2023/07/13 08:24:55;;;;;;;10.90;7.20;;;;;;;28.73;72.84;100788.03;107293;1254;57440;-76
2023/07/13 08:27:27;;;;;;;10.80;6.80;;;;;;;28.87;72.63;100790.54;107496;1245;70112;-77
2023/07/13 08:29:56;;;;;;;9.60;6.50;;;;;;;28.93;72.94;100790.92;107227;1251;61588;-75
2023/07/13 08:32:25;;;;;;;10.10;6.30;;;;;;;29.05;72.63;100791.02;107401;1256;59216;-74
2023/07/13 08:34:54;;;;;;;8.90;6.70;;;;;;;29.11;72.91;100790.73;107313;1244;64927;-79
2023/07/13 08:37:24;;;;;;;10.10;6.40;;;;;;;29.15;71.67;100789.42;107371;1256;60809;-77
2023/07/13 08:39:53;;;;;;;9.40;6.90;;;;;;;28.99;70.41;100792.44;107419;1245;61484;-76
2023/07/13 08:42:46;;;;;;;8.70;6.60;;;;;;;28.88;70.78;100790.73;107293;1248;61676;-76
2023/07/13 08:45:37;;;;;;;10.30;6.40;;;;;;;28.94;71.22;100785.23;107423;1255;72032;-75
2023/07/13 08:48:18;;;;;;;9.50;6.50;;;;;;;29.16;70.85;100789.69;107373;1246;70696;-75
2023/07/13 08:51:22;;;;;;;10.20;5.90;;;;;;;29.24;69.70;100779.77;107261;1248;73492;-76
2023/07/13 08:53:57;;;;;;;12.50;6.20;;;;;;;29.30;69.97;100776.19;107131;1255;57415;-76
2023/07/13 08:57:38;;;;;;;10.50;6.50;;;;;;;29.34;68.98;100762.88;107471;1248;59053;-76
2023/07/13 09:00:14;;;;;;;8.60;6.40;;;;;;;29.50;69.59;100757.35;107017;1249;62861;-76
2023/07/13 09:02:59;;;;;;;7.60;5.80;;;;;;;29.61;69.36;100758.87;107413;1245;60914;-76
2023/07/13 09:05:40;;;;;;;6.50;5.80;;;;;;;29.64;68.90;100758.05;107234;1247;59800;-75
2023/07/13 09:08:49;;;;;;;7.60;5.50;;;;;;;29.74;68.14;100754.18;107178;1252;63218;-75
2023/07/13 09:11:37;;;;;;;9.00;5.80;;;;;;;29.71;68.64;100750.52;107347;1253;60410;-76
2023/07/13 09:14:47;;;;;;;8.30;5.70;;;;;;;29.83;67.98;100754.55;107305;1256;60817;-76
2023/07/13 09:17:22;;;;;;;8.30;6.30;;;;;;;29.86;67.85;100754.87;107309;1249;62089;-76
2023/07/13 09:20:17;;;;;;;7.50;5.70;;;;;;;29.98;67.62;100754.26;107308;1249;60718;-76
2023/07/13 09:22:47;;;;;;;9.50;6.40;;;;;;;30.09;66.72;100751.53;107422;1245;70383;-75
2023/07/13 09:25:33;;;;;;;12.80;6.60;;;;;;;30.26;66.12;100754.41;107400;1255;73341;-77
2023/07/13 09:28:20;;;;;;;8.10;5.60;;;;;;;30.28;65.59;100760.02;107325;1256;59387;-77
